createdAt,value
2019-02-27T00:01:36.995Z,5.03
2019-02-27T00:04:06.321Z,5.30
2019-02-27T00:06:41.306Z,5.43
2019-02-27T00:09:12.743Z,4.60
2019-02-27T00:11:46.013Z,4.50
2019-02-27T00:14:14.225Z,4.47
2019-02-27T00:16:45.315Z,4.43
2019-02-27T00:19:15.012Z,4.37
2019-02-27T00:21:45.110Z,4.87
2019-02-27T00:24:14.777Z,4.90
2019-02-27T00:26:44.671Z,4.87
2019-02-27T00:29:15.427Z,4.80
2019-02-27T00:31:46.155Z,4.87
2019-02-27T00:34:15.942Z,4.97
2019-02-27T00:36:45.725Z,4.43
2019-02-27T00:39:30.868Z,4.80
2019-02-27T00:42:03.358Z,5.20
2019-02-27T00:44:34.722Z,5.27
2019-02-27T00:47:04.443Z,5.10
2019-02-27T00:49:33.531Z,5.13
2019-02-27T00:52:03.222Z,5.50
2019-02-27T00:54:33.259Z,5.43
2019-02-27T00:57:02.668Z,5.10
2019-02-27T00:59:33.120Z,5.73
2019-02-27T01:02:02.841Z,4.70
2019-02-27T01:04:34.943Z,5.00
2019-02-27T01:07:04.232Z,4.40
2019-02-27T01:09:34.058Z,4.70
2019-02-27T01:12:03.204Z,5.13
2019-02-27T01:14:36.931Z,4.77
2019-02-27T01:17:11.590Z,4.90
2019-02-27T01:19:42.761Z,4.53
2019-02-27T01:22:16.520Z,4.53
2019-02-27T01:24:49.965Z,5.03
2019-02-27T01:27:17.189Z,4.83
2019-02-27T01:29:51.063Z,4.97
2019-02-27T01:32:17.666Z,5.00
2019-02-27T01:34:47.074Z,4.83
2019-02-27T01:37:16.646Z,4.63
2019-02-27T01:39:46.542Z,4.40
2019-02-27T01:42:16.286Z,4.37
2019-02-27T01:44:46.660Z,3.93
2019-02-27T01:47:16.214Z,4.37
2019-02-27T01:49:48.908Z,4.63
2019-02-27T01:52:16.258Z,4.60
2019-02-27T01:54:46.034Z,4.10
2019-02-27T01:57:16.904Z,3.87
2019-02-27T01:59:50.069Z,4.20
2019-02-27T02:02:18.589Z,4.80
2019-02-27T02:04:53.134Z,4.20
2019-02-27T02:07:20.445Z,4.07
2019-02-27T02:09:52.085Z,4.17
2019-02-27T02:12:26.329Z,3.77
2019-02-27T02:15:39.676Z,3.43
2019-02-27T02:18:53.435Z,3.47
2019-02-27T02:22:08.889Z,4.00
2019-02-27T02:25:03.167Z,3.77
2019-02-27T02:28:25.750Z,3.57
2019-02-27T02:31:40.969Z,4.00
2019-02-27T02:34:31.097Z,4.23
2019-02-27T02:37:41.802Z,4.13
2019-02-27T02:40:48.300Z,3.70
2019-02-27T02:43:41.837Z,4.10
2019-02-27T02:46:32.259Z,3.83
2019-02-27T02:49:48.915Z,3.70
2019-02-27T02:53:07.190Z,3.37
2019-02-27T02:56:15.433Z,3.30
2019-02-27T02:59:24.957Z,3.40
2019-02-27T03:02:24.716Z,3.37
2019-02-27T03:05:48.060Z,2.73
2019-02-27T03:08:28.050Z,2.80
2019-02-27T03:11:32.503Z,2.73
2019-02-27T03:14:58.894Z,2.97
2019-02-27T03:17:53.535Z,2.97
2019-02-27T03:21:00.383Z,2.70
2019-02-27T03:23:57.075Z,2.80
2019-02-27T03:26:51.678Z,2.90
2019-02-27T03:29:32.966Z,2.90
2019-02-27T03:32:16.783Z,2.73
2019-02-27T03:35:27.976Z,2.70
2019-02-27T03:38:38.059Z,3.00
2019-02-27T03:41:47.977Z,3.03
2019-02-27T03:44:39.114Z,2.67
2019-02-27T03:47:28.394Z,2.77
2019-02-27T03:50:49.529Z,3.00
2019-02-27T03:53:46.443Z,3.20
2019-02-27T03:56:56.610Z,2.60
2019-02-27T03:59:51.904Z,2.97
2019-02-27T04:03:08.253Z,3.43
2019-02-27T04:06:00.041Z,3.10
2019-02-27T04:08:54.037Z,3.00
2019-02-27T04:11:24.088Z,2.60
2019-02-27T04:13:53.418Z,3.03
2019-02-27T04:16:28.833Z,3.40
2019-02-27T04:18:54.039Z,3.93
2019-02-27T04:21:25.330Z,3.17
2019-02-27T04:23:54.805Z,2.83
2019-02-27T04:26:24.957Z,2.83
2019-02-27T04:28:54.264Z,2.83
2019-02-27T04:31:23.533Z,3.03
2019-02-27T04:33:52.692Z,2.90
2019-02-27T04:36:22.003Z,2.90
2019-02-27T04:38:51.519Z,3.23
2019-02-27T04:41:21.250Z,2.80
2019-02-27T04:43:51.602Z,2.97
2019-02-27T04:46:21.707Z,2.87
2019-02-27T04:48:53.033Z,3.00
2019-02-27T04:51:22.152Z,3.00
2019-02-27T04:53:55.904Z,2.97
2019-02-27T04:56:25.602Z,2.70
2019-02-27T04:58:54.759Z,2.70
2019-02-27T05:01:31.217Z,3.50
2019-02-27T05:04:02.102Z,3.07
2019-02-27T05:06:33.219Z,3.10
2019-02-27T05:09:02.798Z,3.10
2019-02-27T05:11:34.526Z,2.90
2019-02-27T05:14:03.681Z,2.97
2019-02-27T05:16:37.140Z,2.87
2019-02-27T05:19:06.761Z,2.70
2019-02-27T05:21:41.243Z,3.57
2019-02-27T05:24:11.755Z,3.30
2019-02-27T05:26:41.224Z,3.63
2019-02-27T05:29:10.298Z,3.13
2019-02-27T05:31:46.168Z,3.80
2019-02-27T05:34:15.832Z,4.50
2019-02-27T05:36:59.031Z,3.80
2019-02-27T05:39:29.160Z,4.03
2019-02-27T05:41:58.317Z,3.53
2019-02-27T05:44:29.455Z,3.67
2019-02-27T05:47:02.223Z,3.47
2019-02-27T05:49:32.759Z,3.80
2019-02-27T05:52:03.304Z,4.77
2019-02-27T05:54:36.969Z,4.00
2019-02-27T05:57:06.648Z,3.80
2019-02-27T05:59:40.065Z,4.33
2019-02-27T06:02:14.489Z,3.90
2019-02-27T06:04:44.535Z,4.73
2019-02-27T06:07:18.619Z,4.30
2019-02-27T06:09:49.041Z,4.17
2019-02-27T06:12:20.865Z,5.80
2019-02-27T06:14:54.854Z,5.30
2019-02-27T06:17:26.893Z,4.80
2019-02-27T06:19:56.695Z,4.17
2019-02-27T06:22:27.247Z,5.87
2019-02-27T06:24:57.888Z,5.57
2019-02-27T06:27:26.981Z,6.13
2019-02-27T06:29:59.806Z,5.07
2019-02-27T06:32:30.146Z,4.63
2019-02-27T06:35:05.425Z,5.40
2019-02-27T06:37:36.484Z,5.27
2019-02-27T06:40:08.079Z,4.60
2019-02-27T06:42:40.430Z,4.80
2019-02-27T06:45:13.272Z,4.17
2019-02-27T06:47:43.810Z,4.33
2019-02-27T06:50:14.564Z,4.47
2019-02-27T06:52:45.362Z,4.40
2019-02-27T06:55:14.926Z,3.90
2019-02-27T06:57:45.544Z,3.50
2019-02-27T07:00:18.823Z,5.37
2019-02-27T07:02:55.599Z,4.00
2019-02-27T07:05:25.906Z,3.60
2019-02-27T07:07:55.788Z,3.70
2019-02-27T07:10:27.332Z,3.47
2019-02-27T07:12:57.131Z,3.37
2019-02-27T07:15:28.047Z,3.73
2019-02-27T07:17:59.750Z,4.00
2019-02-27T07:20:30.029Z,4.43
2019-02-27T07:23:01.294Z,4.47
2019-02-27T07:25:33.901Z,4.27
2019-02-27T07:28:09.193Z,4.27
2019-02-27T07:30:42.469Z,5.10
2019-02-27T07:33:17.150Z,4.33
2019-02-27T07:35:47.111Z,4.20
2019-02-27T07:38:21.345Z,5.03
2019-02-27T07:40:54.242Z,4.90
2019-02-27T07:43:24.876Z,4.67
2019-02-27T07:45:54.939Z,4.87
2019-02-27T07:48:25.019Z,4.53
2019-02-27T07:50:54.705Z,4.50
2019-02-27T07:53:25.713Z,4.40
2019-02-27T07:55:55.448Z,5.03
2019-02-27T07:58:29.265Z,5.00
2019-02-27T08:01:00.976Z,5.27
2019-02-27T08:03:31.669Z,4.60
2019-02-27T08:06:02.399Z,5.27
2019-02-27T08:08:32.173Z,5.47
2019-02-27T08:11:03.386Z,4.50
2019-02-27T08:13:35.009Z,5.40
2019-02-27T08:16:04.656Z,5.10
2019-02-27T08:18:37.627Z,5.27
2019-02-27T08:21:07.487Z,5.27
2019-02-27T08:23:36.578Z,5.70
2019-02-27T08:26:06.697Z,8.03
2019-02-27T08:28:38.569Z,6.70
2019-02-27T08:31:07.933Z,7.20
2019-02-27T08:33:40.012Z,6.90
2019-02-27T08:36:09.799Z,6.10
2019-02-27T08:38:39.417Z,5.47
2019-02-27T08:41:09.190Z,5.63
2019-02-27T08:43:41.179Z,5.70
2019-02-27T08:46:10.704Z,5.30
2019-02-27T08:48:43.756Z,6.73
2019-02-27T08:51:12.879Z,6.60
2019-02-27T08:53:42.355Z,5.83
2019-02-27T08:56:12.954Z,5.60
2019-02-27T08:58:54.031Z,5.30
2019-02-27T09:01:23.219Z,6.20
2019-02-27T09:03:52.565Z,6.93
2019-02-27T09:06:21.933Z,6.60
2019-02-27T09:08:52.423Z,5.53
2019-02-27T09:11:22.285Z,7.37
2019-02-27T09:13:51.813Z,6.53
2019-02-27T09:16:26.044Z,6.33
2019-02-27T09:18:56.906Z,7.20
2019-02-27T09:21:27.867Z,6.80
2019-02-27T09:23:58.812Z,7.00
2019-02-27T09:26:36.053Z,7.80
2019-02-27T09:29:03.506Z,7.23
2019-02-27T09:31:37.761Z,7.50
2019-02-27T09:36:35.380Z,6.67
2019-02-27T09:39:06.857Z,7.72
2019-02-27T09:41:39.422Z,8.85
2019-02-27T09:44:08.671Z,8.55
2019-02-27T09:46:38.623Z,8.78
2019-02-27T09:49:08.045Z,8.75
2019-02-27T09:51:37.934Z,9.07
2019-02-27T09:54:11.061Z,9.63
2019-02-27T09:56:43.680Z,9.60
2019-02-27T09:59:13.941Z,8.30
2019-02-27T10:01:45.610Z,9.40
2019-02-27T10:04:15.103Z,7.97
2019-02-27T10:06:44.591Z,7.83
2019-02-27T10:09:17.610Z,8.55
2019-02-27T10:11:48.257Z,7.30
2019-02-27T10:14:18.359Z,8.00
2019-02-27T10:16:47.878Z,6.92
2019-02-27T10:19:18.447Z,8.48
2019-02-27T10:21:48.398Z,8.13
2019-02-27T10:24:17.628Z,7.78
2019-02-27T10:26:47.614Z,7.72
2019-02-27T10:29:19.084Z,8.65
2019-02-27T10:31:50.475Z,9.08
2019-02-27T10:34:20.155Z,9.30
2019-02-27T10:36:49.655Z,7.57
2019-02-27T10:39:18.955Z,7.70
2019-02-27T10:41:50.526Z,8.07
2019-02-27T10:44:20.162Z,6.90
2019-02-27T10:46:49.404Z,6.80
2019-02-27T10:49:25.030Z,6.63
2019-02-27T10:51:54.256Z,7.20
2019-02-27T10:54:27.942Z,7.87
2019-02-27T10:56:58.770Z,8.00
2019-02-27T10:59:28.613Z,6.83
2019-02-27T11:01:59.775Z,7.37
2019-02-27T11:04:29.868Z,7.43
2019-02-27T11:07:00.923Z,7.87
2019-02-27T11:09:30.756Z,6.70
2019-02-27T11:12:00.743Z,7.13
2019-02-27T11:14:31.998Z,7.70
2019-02-27T11:17:02.747Z,8.60
2019-02-27T11:19:34.807Z,7.60
2019-02-27T11:22:06.042Z,7.70
2019-02-27T11:24:35.862Z,7.55
2019-02-27T11:27:06.196Z,7.70
2019-02-27T11:29:37.427Z,7.23
2019-02-27T11:32:07.416Z,7.03
2019-02-27T11:34:36.836Z,7.53
2019-02-27T11:37:06.454Z,7.57
2019-02-27T11:39:35.988Z,6.40
2019-02-27T11:42:06.075Z,7.83
2019-02-27T11:44:39.497Z,6.80
2019-02-27T11:47:11.333Z,7.13
2019-02-27T11:49:41.077Z,7.63
2019-02-27T11:52:10.619Z,7.17
2019-02-27T11:54:43.006Z,7.40
2019-02-27T11:57:11.478Z,7.47
2019-02-27T11:59:40.690Z,6.97
2019-02-27T12:02:10.406Z,7.33
2019-02-27T12:04:40.070Z,8.03
2019-02-27T12:07:12.184Z,7.13
2019-02-27T12:09:41.454Z,7.17
2019-02-27T12:12:13.192Z,7.03
2019-02-27T12:14:44.062Z,6.90
2019-02-27T12:17:14.123Z,7.70
2019-02-27T12:19:45.330Z,8.10
2019-02-27T12:22:18.422Z,6.67
2019-02-27T12:25:17.476Z,7.80
2019-02-27T12:27:50.098Z,7.37
2019-02-27T12:30:21.075Z,6.63
2019-02-27T12:32:55.596Z,6.70
2019-02-27T12:35:23.769Z,7.10
2019-02-27T12:37:55.382Z,7.50
2019-02-27T12:40:25.939Z,7.17
2019-02-27T12:42:59.063Z,7.07
2019-02-27T12:45:30.077Z,7.50
2019-02-27T12:48:00.425Z,7.40
2019-02-27T12:50:31.891Z,8.50
2019-02-27T12:53:07.364Z,7.30
2019-02-27T12:55:37.241Z,7.87
2019-02-27T12:58:06.241Z,6.97
2019-02-27T13:00:39.956Z,6.83
2019-02-27T13:03:10.403Z,6.40
2019-02-27T13:05:39.559Z,6.80
2019-02-27T13:08:08.522Z,7.27
2019-02-27T13:10:37.507Z,6.63
2019-02-27T13:13:06.882Z,6.30
2019-02-27T13:15:38.338Z,6.20
2019-02-27T13:18:07.686Z,5.87
2019-02-27T13:20:36.833Z,6.70
2019-02-27T13:23:06.124Z,6.60
2019-02-27T13:25:35.211Z,5.67
2019-02-27T13:28:05.018Z,6.30
2019-02-27T13:30:34.682Z,5.97
2019-02-27T13:33:04.179Z,6.40
2019-02-27T13:35:34.548Z,6.60
2019-02-27T13:38:04.105Z,6.23
2019-02-27T13:40:35.620Z,5.50
2019-02-27T13:43:04.952Z,5.97
2019-02-27T13:45:34.468Z,5.63
2019-02-27T13:48:05.925Z,5.30
2019-02-27T13:50:35.321Z,5.27
2019-02-27T13:53:12.668Z,9.37
2019-02-27T13:55:41.773Z,5.83
2019-02-27T13:58:10.823Z,5.53
2019-02-27T14:00:40.493Z,4.80
2019-02-27T14:03:12.641Z,5.00
2019-02-27T14:05:41.856Z,4.20
2019-02-27T14:08:11.724Z,5.07
2019-02-27T14:10:42.940Z,4.93
2019-02-27T14:13:17.564Z,5.03
2019-02-27T14:15:47.649Z,5.03
2019-02-27T14:18:17.043Z,4.47
2019-02-27T14:20:47.602Z,4.50
2019-02-27T14:23:17.067Z,5.27
2019-02-27T14:25:48.447Z,5.27
2019-02-27T14:28:20.964Z,4.97
2019-02-27T14:30:49.641Z,4.90
2019-02-27T14:33:19.555Z,4.90
2019-02-27T14:35:50.065Z,4.77
2019-02-27T14:38:21.860Z,4.27
2019-02-27T14:40:51.003Z,5.80
2019-02-27T14:43:21.960Z,5.00
2019-02-27T14:45:56.089Z,4.80
2019-02-27T14:48:25.761Z,5.50
2019-02-27T14:50:57.448Z,4.80
2019-02-27T14:53:28.775Z,4.43
2019-02-27T14:55:58.450Z,4.10
2019-02-27T14:58:33.108Z,4.77
2019-02-27T15:01:03.064Z,4.83
2019-02-27T15:03:32.532Z,5.53
2019-02-27T15:06:02.798Z,4.60
2019-02-27T15:08:32.664Z,4.13
2019-02-27T15:11:02.927Z,4.90
2019-02-27T15:13:33.105Z,4.13
2019-02-27T15:16:03.179Z,5.00
2019-02-27T15:18:32.726Z,3.83
2019-02-27T15:21:02.236Z,5.00
2019-02-27T15:23:31.628Z,5.00
2019-02-27T15:26:00.745Z,4.37
2019-02-27T15:28:33.464Z,4.20
2019-02-27T15:31:02.473Z,4.40
2019-02-27T15:33:31.863Z,4.20
2019-02-27T15:36:01.233Z,4.13
2019-02-27T15:38:30.999Z,4.73
2019-02-27T15:41:03.266Z,3.57
2019-02-27T15:43:31.898Z,4.10
2019-02-27T15:46:01.800Z,4.00
2019-02-27T15:48:30.844Z,3.53
2019-02-27T15:51:00.296Z,3.60
2019-02-27T15:53:29.626Z,3.90
2019-02-27T15:55:59.477Z,4.30
2019-02-27T15:58:28.818Z,3.40
2019-02-27T16:00:58.624Z,3.80
2019-02-27T16:03:28.647Z,3.57
2019-02-27T16:05:57.965Z,3.50
2019-02-27T16:08:27.915Z,3.63
2019-02-27T16:11:01.749Z,3.50
2019-02-27T16:13:34.690Z,3.73
2019-02-27T16:16:05.636Z,4.17
2019-02-27T16:18:36.917Z,4.23
2019-02-27T16:21:07.203Z,3.17
2019-02-27T16:23:37.491Z,4.53
2019-02-27T16:26:16.273Z,3.80
2019-02-27T16:28:46.131Z,3.97
2019-02-27T16:31:19.126Z,4.83
2019-02-27T16:33:52.127Z,3.63
2019-02-27T16:36:36.207Z,3.50
2019-02-27T16:39:06.955Z,3.10
2019-02-27T16:41:32.719Z,3.97
2019-02-27T16:44:02.424Z,4.03
2019-02-27T16:46:32.230Z,5.23
2019-02-27T16:49:02.851Z,3.90
2019-02-27T16:51:34.746Z,4.73
2019-02-27T16:54:05.990Z,4.70
2019-02-27T16:56:35.398Z,4.93
2019-02-27T16:59:07.948Z,4.30
2019-02-27T17:01:38.454Z,3.73
2019-02-27T17:04:07.883Z,4.43
2019-02-27T17:06:37.811Z,4.83
2019-02-27T17:09:10.134Z,4.73
2019-02-27T17:11:38.935Z,5.63
2019-02-27T17:14:08.801Z,4.90
2019-02-27T17:16:44.364Z,4.70
2019-02-27T17:19:11.268Z,4.67
2019-02-27T17:21:41.407Z,4.03
2019-02-27T17:24:10.852Z,4.80
2019-02-27T17:26:42.311Z,5.60
2019-02-27T17:29:13.830Z,6.03
2019-02-27T17:31:49.423Z,6.53
2019-02-27T17:34:14.496Z,6.33
2019-02-27T17:36:43.849Z,7.27
2019-02-27T17:39:13.184Z,7.03
2019-02-27T17:41:44.745Z,6.83
2019-02-27T17:44:14.048Z,6.13
2019-02-27T17:46:43.548Z,6.70
2019-02-27T17:49:13.190Z,5.73
2019-02-27T17:51:42.369Z,5.77
2019-02-27T17:54:12.042Z,4.77
2019-02-27T17:56:42.586Z,5.30
2019-02-27T17:59:12.952Z,5.40
2019-02-27T18:01:42.577Z,5.50
2019-02-27T18:04:14.594Z,5.63
2019-02-27T18:06:44.941Z,6.87
2019-02-27T18:09:16.972Z,6.37
2019-02-27T18:11:52.245Z,6.23
2019-02-27T18:14:18.376Z,6.30
2019-02-27T18:16:47.625Z,7.53
2019-02-27T18:19:17.265Z,6.83
2019-02-27T18:21:46.740Z,7.40
2019-02-27T18:24:16.755Z,8.67
2019-02-27T18:26:49.993Z,7.00
2019-02-27T18:29:17.668Z,7.47
2019-02-27T18:31:47.001Z,7.20
2019-02-27T18:34:21.626Z,8.07
2019-02-27T18:36:51.195Z,7.47
2019-02-27T18:39:25.700Z,6.83
2019-02-27T18:41:55.831Z,6.53
2019-02-27T18:44:25.180Z,6.57
2019-02-27T18:46:56.291Z,5.93
2019-02-27T18:49:26.545Z,7.03
2019-02-27T18:51:57.346Z,7.10
2019-02-27T18:54:27.293Z,6.73
2019-02-27T18:56:56.748Z,6.10
2019-02-27T18:59:29.375Z,7.57
2019-02-27T19:01:57.450Z,8.23
2019-02-27T19:04:35.068Z,7.77
2019-02-27T19:07:05.300Z,8.30
2019-02-27T19:09:34.965Z,10.07
2019-02-27T19:12:05.559Z,9.03
2019-02-27T19:14:37.481Z,8.07
2019-02-27T19:17:08.905Z,7.97
2019-02-27T19:19:42.256Z,7.40
2019-02-27T19:22:21.245Z,9.07
2019-02-27T19:24:51.539Z,8.10
2019-02-27T19:27:27.413Z,8.23
2019-02-27T19:29:57.439Z,8.33
2019-02-27T19:32:31.528Z,9.87
2019-02-27T19:35:01.271Z,8.87
2019-02-27T19:37:40.106Z,9.57
2019-02-27T19:40:14.963Z,9.37
2019-02-27T19:43:02.979Z,9.60
2019-02-27T19:45:36.571Z,11.23
2019-02-27T19:48:07.317Z,10.30
2019-02-27T19:50:36.907Z,11.03
2019-02-27T19:53:07.149Z,9.97
2019-02-27T19:55:37.165Z,9.77
2019-02-27T19:58:08.284Z,10.33
2019-02-27T20:00:48.042Z,9.63
2019-02-27T20:03:12.852Z,9.73
2019-02-27T20:05:46.547Z,9.13
2019-02-27T20:08:51.677Z,9.77
2019-02-27T20:11:24.269Z,9.97
2019-02-27T20:14:04.118Z,10.10
2019-02-27T20:16:35.555Z,9.43
2019-02-27T20:19:07.181Z,9.50
2019-02-27T20:21:44.310Z,9.30
2019-02-27T20:24:14.801Z,9.27
2019-02-27T20:26:51.358Z,9.57
2019-02-27T20:29:24.169Z,9.43
2019-02-27T20:31:55.850Z,8.00
2019-02-27T20:34:25.754Z,8.80
2019-02-27T20:36:57.391Z,8.17
2019-02-27T20:39:29.888Z,8.73
2019-02-27T20:42:02.605Z,8.30
2019-02-27T20:44:37.402Z,8.73
2019-02-27T20:47:08.499Z,7.50
2019-02-27T20:49:50.522Z,8.10
2019-02-27T20:52:22.557Z,8.60
2019-02-27T20:54:54.405Z,8.03
2019-02-27T20:57:24.334Z,7.27
2019-02-27T21:00:00.725Z,6.57
2019-02-27T21:02:26.642Z,6.07
2019-02-27T21:04:55.951Z,6.13
2019-02-27T21:07:26.176Z,6.17
2019-02-27T21:09:56.455Z,6.70
2019-02-27T21:12:26.367Z,6.23
2019-02-27T21:14:57.878Z,6.60
2019-02-27T21:17:30.840Z,5.73
2019-02-27T21:20:00.740Z,6.70
2019-02-27T21:22:37.678Z,6.00
2019-02-27T21:25:19.801Z,6.37
2019-02-27T21:30:40.479Z,6.00
2019-02-27T21:33:11.265Z,6.27
2019-02-27T21:36:03.366Z,6.67
2019-02-27T21:38:33.316Z,5.27
2019-02-27T21:41:03.500Z,6.07
2019-02-27T21:43:32.503Z,6.20
2019-02-27T21:46:01.925Z,7.07
2019-02-27T21:48:36.528Z,5.47
2019-02-27T21:51:11.032Z,6.13
2019-02-27T21:53:46.652Z,6.83
2019-02-27T21:56:19.157Z,5.60
2019-02-27T21:58:49.004Z,5.37
2019-02-27T22:01:19.262Z,4.90
2019-02-27T22:03:50.368Z,4.73
2019-02-27T22:06:24.622Z,5.40
2019-02-27T22:08:52.608Z,5.30
2019-02-27T22:11:24.283Z,5.47
2019-02-27T22:13:54.950Z,5.43
2019-02-27T22:16:29.605Z,5.10
2019-02-27T22:18:58.993Z,5.37
2019-02-27T22:21:31.344Z,4.67
2019-02-27T22:24:00.401Z,4.10
2019-02-27T22:26:30.641Z,4.03
2019-02-27T22:29:00.004Z,3.73
2019-02-27T22:31:29.421Z,3.60
2019-02-27T22:33:59.526Z,4.23
2019-02-27T22:36:29.049Z,4.00
2019-02-27T22:39:00.253Z,4.10
2019-02-27T22:41:30.779Z,3.90
2019-02-27T22:44:02.239Z,4.33
2019-02-27T22:46:34.963Z,4.23
2019-02-27T22:49:04.483Z,4.20
2019-02-27T22:51:38.781Z,4.30
2019-02-27T22:54:08.991Z,4.37
2019-02-27T22:56:38.302Z,4.00
2019-02-27T22:59:08.241Z,4.27
2019-02-27T23:01:49.404Z,4.20
2019-02-27T23:04:19.310Z,3.87
2019-02-27T23:06:48.985Z,3.90
2019-02-27T23:09:20.455Z,3.97
2019-02-27T23:11:50.090Z,3.27
2019-02-27T23:14:19.873Z,3.53
2019-02-27T23:16:49.547Z,3.30
2019-02-27T23:19:20.258Z,3.67
2019-02-27T23:21:50.981Z,3.27
2019-02-27T23:24:20.194Z,2.80
2019-02-27T23:26:54.407Z,3.50
2019-02-27T23:29:21.693Z,2.90
2019-02-27T23:31:50.774Z,2.70
2019-02-27T23:34:26.906Z,2.60
2019-02-27T23:37:00.587Z,2.67
2019-02-27T23:39:31.242Z,2.20
2019-02-27T23:42:00.631Z,2.60
2019-02-27T23:44:30.967Z,2.60
2019-02-27T23:47:03.077Z,2.17
2019-02-27T23:49:33.351Z,2.30
2019-02-27T23:52:03.347Z,2.40
2019-02-27T23:54:35.913Z,2.20
2019-02-27T23:57:05.191Z,2.33
2019-02-27T23:59:35.597Z,2.10
